createdAt,value
2017-06-15T00:01:35.633Z,101177
2017-06-15T00:04:05.012Z,101181
2017-06-15T00:06:33.179Z,101178
2017-06-15T00:09:01.364Z,101176
2017-06-15T00:11:29.929Z,101167
2017-06-15T00:13:58.127Z,101171
2017-06-15T00:16:27.081Z,101169
2017-06-15T00:18:55.727Z,101165
2017-06-15T00:21:23.936Z,101162
2017-06-15T00:23:52.144Z,101167
2017-06-15T00:26:20.905Z,101171
2017-06-15T00:28:49.146Z,101167
2017-06-15T00:31:17.364Z,101154
2017-06-15T00:33:45.893Z,101164
2017-06-15T00:36:14.087Z,101155
2017-06-15T00:38:42.257Z,101151
2017-06-15T00:41:10.840Z,101145
2017-06-15T00:43:39.074Z,101141
2017-06-15T00:46:07.251Z,101147
2017-06-15T00:48:35.900Z,101146
2017-06-15T00:51:04.099Z,101147
2017-06-15T00:53:32.331Z,101152
2017-06-15T00:56:01.132Z,101149
2017-06-15T00:58:29.344Z,101148
2017-06-15T01:00:58.396Z,101143
2017-06-15T01:03:26.934Z,101148
2017-06-15T01:05:55.154Z,101145
2017-06-15T01:08:23.401Z,101148
2017-06-15T01:10:52.012Z,101148
2017-06-15T01:13:20.235Z,101145
2017-06-15T01:15:48.544Z,101142
2017-06-15T01:18:17.248Z,101137
2017-06-15T01:20:45.435Z,101141
2017-06-15T01:23:13.628Z,101135
2017-06-15T01:25:42.427Z,101136
2017-06-15T01:28:10.658Z,101143
2017-06-15T01:30:38.912Z,101135
2017-06-15T01:33:07.509Z,101141
2017-06-15T01:35:35.707Z,101140
2017-06-15T01:38:03.897Z,101135
2017-06-15T01:40:33.542Z,101128
2017-06-15T01:43:01.711Z,101131
2017-06-15T01:45:29.910Z,101130
2017-06-15T01:47:58.480Z,101129
2017-06-15T01:50:26.664Z,101121
2017-06-15T01:52:54.919Z,101121
2017-06-15T01:55:23.558Z,101123
2017-06-15T01:57:51.763Z,101119
2017-06-15T02:00:20.106Z,101117
2017-06-15T02:02:48.618Z,101112
2017-06-15T02:05:16.847Z,101112
2017-06-15T02:07:44.990Z,101113
2017-06-15T02:10:13.687Z,101110
2017-06-15T02:12:41.931Z,101104
2017-06-15T02:15:10.106Z,101111
2017-06-15T02:17:38.398Z,101102
2017-06-15T02:20:06.689Z,101102
2017-06-15T02:22:34.920Z,101100
2017-06-15T02:25:03.457Z,101102
2017-06-15T02:27:31.655Z,101094
2017-06-15T02:30:00.650Z,101088
2017-06-15T02:32:29.217Z,101095
2017-06-15T02:34:58.142Z,101095
2017-06-15T02:37:26.367Z,101100
2017-06-15T02:39:54.932Z,101089
2017-06-15T02:42:23.167Z,101092
2017-06-15T02:44:51.355Z,101089
2017-06-15T02:47:19.883Z,101087
2017-06-15T02:49:48.103Z,101087
2017-06-15T02:52:16.333Z,101094
2017-06-15T02:54:45.006Z,101093
2017-06-15T02:57:13.182Z,101096
2017-06-15T02:59:41.411Z,101085
2017-06-15T03:02:10.043Z,101089
2017-06-15T03:04:38.247Z,101081
2017-06-15T03:07:07.216Z,101077
2017-06-15T03:09:35.743Z,101074
2017-06-15T03:12:03.943Z,101081
2017-06-15T03:14:32.140Z,101074
2017-06-15T03:17:00.671Z,101069
2017-06-15T03:19:28.842Z,101072
2017-06-15T03:21:57.033Z,101072
2017-06-15T03:24:25.581Z,101073
2017-06-15T03:26:53.778Z,101078
2017-06-15T03:29:21.978Z,101077
2017-06-15T03:31:50.561Z,101072
2017-06-15T03:34:18.804Z,101075
2017-06-15T03:36:47.010Z,101075
2017-06-15T03:39:15.584Z,101084
2017-06-15T03:41:43.762Z,101079
2017-06-15T03:44:11.948Z,101083
2017-06-15T03:46:40.523Z,101076
2017-06-15T03:49:08.722Z,101079
2017-06-15T03:51:37.669Z,101086
2017-06-15T03:54:07.089Z,101083
2017-06-15T03:56:35.298Z,101084
2017-06-15T03:59:04.348Z,101085
2017-06-15T04:01:32.964Z,101086
2017-06-15T04:04:01.155Z,101088
2017-06-15T04:06:30.127Z,101079
2017-06-15T04:08:59.395Z,101083
2017-06-15T04:11:27.591Z,101081
2017-06-15T04:13:55.783Z,101069
2017-06-15T04:16:24.331Z,101079
2017-06-15T04:18:52.497Z,101070
2017-06-15T04:21:20.677Z,101070
2017-06-15T04:23:49.246Z,101069
2017-06-15T04:26:17.454Z,101070
2017-06-15T04:28:45.662Z,101060
2017-06-15T04:31:14.298Z,101065
2017-06-15T04:33:45.360Z,101068
2017-06-15T04:36:14.090Z,101060
2017-06-15T04:38:42.260Z,101062
2017-06-15T04:41:10.446Z,101063
2017-06-15T04:43:39.055Z,101064
2017-06-15T04:46:07.233Z,101073
2017-06-15T04:48:35.419Z,101075
2017-06-15T04:51:03.963Z,101049
2017-06-15T04:53:32.172Z,101080
2017-06-15T04:56:00.447Z,101079
2017-06-15T04:58:29.739Z,101075
2017-06-15T05:00:57.909Z,101075
2017-06-15T05:03:26.113Z,101080
2017-06-15T05:05:55.406Z,101077
2017-06-15T05:08:24.358Z,101084
2017-06-15T05:10:52.565Z,101079
2017-06-15T05:13:23.302Z,101076
2017-06-15T05:15:51.635Z,101077
2017-06-15T05:18:19.906Z,101073
2017-06-15T05:20:48.551Z,101079
2017-06-15T05:23:16.746Z,101066
2017-06-15T05:25:44.972Z,101066
2017-06-15T05:28:13.654Z,101061
2017-06-15T05:30:41.889Z,101062
2017-06-15T05:33:10.075Z,101059
2017-06-15T05:35:38.675Z,101058
2017-06-15T05:38:06.856Z,101051
2017-06-15T05:40:35.386Z,101052
2017-06-15T05:43:04.028Z,101045
2017-06-15T05:45:32.214Z,101038
2017-06-15T05:48:00.423Z,101033
2017-06-15T05:50:29.220Z,101030
2017-06-15T05:52:57.423Z,101028
2017-06-15T05:55:25.734Z,101028
2017-06-15T05:57:54.282Z,101028
2017-06-15T06:00:22.446Z,101021
2017-06-15T06:02:50.682Z,101021
2017-06-15T06:05:19.226Z,101025
2017-06-15T06:07:48.170Z,101025
2017-06-15T06:10:16.374Z,101017
2017-06-15T06:12:44.883Z,101009
2017-06-15T06:15:13.273Z,101009
2017-06-15T06:17:41.465Z,101007
2017-06-15T06:20:10.092Z,101008
2017-06-15T06:22:38.268Z,100995
2017-06-15T06:25:06.457Z,100993
2017-06-15T06:27:35.798Z,100991
2017-06-15T06:30:04.006Z,100996
2017-06-15T06:32:33.372Z,100995
2017-06-15T06:35:02.002Z,100994
2017-06-15T06:37:30.202Z,100996
2017-06-15T06:39:58.427Z,100993
2017-06-15T06:42:26.950Z,100996
2017-06-15T06:44:55.897Z,100996
2017-06-15T06:47:24.088Z,100999
2017-06-15T06:49:52.651Z,100999
2017-06-15T06:52:20.923Z,101006
2017-06-15T06:54:49.222Z,101009
2017-06-15T06:57:17.787Z,101014
2017-06-15T06:59:46.036Z,101017
2017-06-15T07:02:14.234Z,101016
2017-06-15T07:04:42.758Z,101030
2017-06-15T07:07:11.707Z,101023
2017-06-15T07:09:39.896Z,101021
2017-06-15T07:12:08.471Z,101021
2017-06-15T07:14:36.704Z,101021
2017-06-15T07:17:04.934Z,101014
2017-06-15T07:19:33.614Z,101011
2017-06-15T07:22:01.865Z,101006
2017-06-15T07:24:30.463Z,101014
2017-06-15T07:26:59.060Z,101013
2017-06-15T07:29:27.526Z,101012
2017-06-15T07:31:55.704Z,101006
2017-06-15T07:34:24.254Z,100998
2017-06-15T07:36:52.545Z,100991
2017-06-15T07:39:20.839Z,101003
2017-06-15T07:41:49.416Z,100996
2017-06-15T07:44:17.614Z,100997
2017-06-15T07:46:45.816Z,100997
2017-06-15T07:49:14.556Z,101005
2017-06-15T07:51:42.742Z,100981
2017-06-15T07:54:10.944Z,100998
2017-06-15T07:56:39.686Z,100995
2017-06-15T07:59:07.856Z,100999
2017-06-15T08:01:36.017Z,100994
2017-06-15T08:04:04.649Z,100986
2017-06-15T08:06:33.570Z,100996
2017-06-15T08:09:01.821Z,100996
2017-06-15T08:11:30.418Z,100988
2017-06-15T08:13:58.599Z,100989
2017-06-15T08:16:27.927Z,100986
2017-06-15T08:18:56.508Z,100981
2017-06-15T08:21:24.815Z,100985
2017-06-15T08:23:53.818Z,100976
2017-06-15T08:26:22.363Z,100975
2017-06-15T08:28:50.625Z,100974
2017-06-15T08:31:18.813Z,100976
2017-06-15T08:33:47.386Z,100971
2017-06-15T08:36:15.591Z,100969
2017-06-15T08:38:43.775Z,100963
2017-06-15T08:41:12.360Z,100962
2017-06-15T08:43:40.546Z,100954
2017-06-15T08:46:08.720Z,100945
2017-06-15T08:48:37.390Z,100942
2017-06-15T08:51:05.569Z,100935
2017-06-15T08:53:33.799Z,100941
2017-06-15T08:56:02.344Z,100930
2017-06-15T08:58:30.530Z,100931
2017-06-15T09:00:58.731Z,100931
2017-06-15T09:03:27.421Z,100932
2017-06-15T09:05:55.651Z,100933
2017-06-15T09:08:23.851Z,100923
2017-06-15T09:10:52.378Z,100929
2017-06-15T09:13:20.586Z,100918
2017-06-15T09:15:48.794Z,100920
2017-06-15T09:18:17.407Z,100916
2017-06-15T09:20:45.618Z,100920
2017-06-15T09:23:13.947Z,100919
2017-06-15T09:25:42.643Z,100913
2017-06-15T09:28:10.819Z,100912
2017-06-15T09:30:39.011Z,100917
2017-06-15T09:33:07.635Z,100912
2017-06-15T09:35:35.854Z,100916
2017-06-15T09:38:04.103Z,100900
2017-06-15T09:40:32.696Z,100886
2017-06-15T09:43:01.695Z,100897
2017-06-15T09:45:30.642Z,100897
2017-06-15T09:47:59.234Z,100890
2017-06-15T09:50:27.457Z,100879
2017-06-15T09:52:57.040Z,100885
2017-06-15T09:55:25.698Z,100874
2017-06-15T09:57:53.932Z,100871
2017-06-15T10:00:22.135Z,100870
2017-06-15T10:02:50.824Z,100872
2017-06-15T10:05:19.103Z,100872
2017-06-15T10:07:47.398Z,100870
2017-06-15T10:10:16.139Z,100862
2017-06-15T10:12:44.342Z,100869
2017-06-15T10:15:12.548Z,100859
2017-06-15T10:17:41.263Z,100867
2017-06-15T10:20:09.466Z,100863
2017-06-15T10:22:37.647Z,100862
2017-06-15T10:25:06.340Z,100861
2017-06-15T10:27:34.577Z,100863
2017-06-15T10:30:02.826Z,100858
2017-06-15T10:32:31.630Z,100863
2017-06-15T10:34:59.889Z,100860
2017-06-15T10:37:28.214Z,100856
2017-06-15T10:39:56.794Z,100858
2017-06-15T10:42:25.034Z,100853
2017-06-15T10:44:53.251Z,100850
2017-06-15T10:49:49.471Z,100850
2017-06-15T10:52:17.680Z,100844
2017-06-15T10:54:46.175Z,100835
2017-06-15T11:02:04.350Z,100819
2017-06-15T11:04:33.109Z,100827
2017-06-15T11:07:01.331Z,100817
2017-06-15T11:09:29.638Z,100811
2017-06-15T11:11:58.262Z,100807
2017-06-15T11:14:26.648Z,100805
2017-06-15T11:16:55.621Z,100803
2017-06-15T11:19:24.286Z,100796
2017-06-15T11:21:53.303Z,100799
2017-06-15T11:24:21.494Z,100802
2017-06-15T11:26:51.506Z,100797
2017-06-15T11:29:20.513Z,100792
2017-06-15T11:31:48.749Z,100793
2017-06-15T11:34:17.375Z,100800
2017-06-15T11:36:45.633Z,100787
2017-06-15T11:39:14.674Z,100787
2017-06-15T11:41:43.339Z,100785
2017-06-15T11:44:11.676Z,100783
2017-06-15T11:46:46.275Z,100777
2017-06-15T11:49:14.582Z,100763
2017-06-15T11:51:43.642Z,100769
2017-06-15T11:54:12.238Z,100770
2017-06-15T11:56:40.458Z,100765
2017-06-15T11:59:08.671Z,100761
2017-06-15T12:01:37.360Z,100763
2017-06-15T12:04:05.739Z,100747
2017-06-15T12:06:34.037Z,100745
2017-06-15T12:09:02.644Z,100735
2017-06-15T12:11:30.873Z,100739
2017-06-15T12:13:59.145Z,100731
2017-06-15T12:16:27.832Z,100710
2017-06-15T12:18:56.340Z,100707
2017-06-15T12:21:24.598Z,100695
2017-06-15T12:23:53.181Z,100691
2017-06-15T12:26:21.399Z,100695
2017-06-15T12:28:49.638Z,100690
2017-06-15T12:31:18.946Z,100698
2017-06-15T12:33:47.198Z,100690
2017-06-15T12:36:15.666Z,100678
2017-06-15T12:38:44.331Z,100681
2017-06-15T12:41:13.483Z,100683
2017-06-15T12:43:41.694Z,100681
2017-06-15T12:46:10.311Z,100680
2017-06-15T12:48:38.518Z,100672
2017-06-15T12:51:06.700Z,100677
2017-06-15T12:53:35.447Z,100676
2017-06-15T12:56:03.658Z,100673
2017-06-15T12:58:31.899Z,100673
2017-06-15T13:01:00.450Z,100676
2017-06-15T13:03:28.644Z,100653
2017-06-15T13:05:56.853Z,100665
2017-06-15T13:08:26.210Z,100659
2017-06-15T13:10:54.422Z,100666
2017-06-15T13:13:23.390Z,100672
2017-06-15T13:15:51.973Z,100666
2017-06-15T13:18:20.188Z,100665
2017-06-15T13:20:48.382Z,100657
2017-06-15T13:23:16.918Z,100654
2017-06-15T13:25:45.110Z,100655
2017-06-15T13:28:13.315Z,100655
2017-06-15T13:30:42.182Z,100649
2017-06-15T13:33:10.380Z,100642
2017-06-15T13:35:38.685Z,100647
2017-06-15T13:38:07.239Z,100635
2017-06-15T13:40:35.468Z,100639
2017-06-15T13:43:03.655Z,100631
2017-06-15T13:45:32.194Z,100626
2017-06-15T13:48:00.399Z,100628
2017-06-15T13:50:29.450Z,100624
2017-06-15T13:52:57.951Z,100619
2017-06-15T13:55:26.140Z,100614
2017-06-15T13:57:55.151Z,100617
2017-06-15T14:00:24.503Z,100612
2017-06-15T14:02:52.693Z,100602
2017-06-15T14:05:20.883Z,100600
2017-06-15T14:07:49.668Z,100597
2017-06-15T14:10:18.703Z,100604
2017-06-15T14:12:46.983Z,100602
2017-06-15T14:15:15.593Z,100597
2017-06-15T14:17:43.783Z,100597
2017-06-15T14:20:11.960Z,100594
2017-06-15T14:22:40.705Z,100587
2017-06-15T14:25:08.882Z,100578
2017-06-15T14:27:37.098Z,100570
2017-06-15T14:30:06.576Z,100559
2017-06-15T14:32:34.787Z,100565
2017-06-15T14:35:03.730Z,100546
2017-06-15T14:37:32.315Z,100541
2017-06-15T14:40:00.923Z,100540
2017-06-15T14:42:29.294Z,100540
2017-06-15T14:44:57.874Z,100542
2017-06-15T14:47:26.071Z,100536
2017-06-15T14:49:54.285Z,100538
2017-06-15T14:52:22.901Z,100537
2017-06-15T14:54:51.174Z,100539
2017-06-15T14:57:19.358Z,100536
2017-06-15T14:59:47.941Z,100535
2017-06-15T15:02:16.169Z,100537
2017-06-15T15:04:44.351Z,100530
2017-06-15T15:07:12.877Z,100516
2017-06-15T15:09:41.849Z,100522
2017-06-15T15:12:10.050Z,100512
2017-06-15T15:14:39.367Z,100510
2017-06-15T15:17:07.861Z,100518
2017-06-15T15:19:36.084Z,100508
2017-06-15T15:22:04.835Z,100508
2017-06-15T15:24:33.034Z,100503
2017-06-15T15:27:01.261Z,100499
2017-06-15T15:29:29.895Z,100494
2017-06-15T15:31:58.104Z,100494
2017-06-15T15:34:27.067Z,100485
2017-06-15T15:36:55.648Z,100479
2017-06-15T15:39:23.838Z,100477
2017-06-15T15:41:52.044Z,100475
2017-06-15T15:44:20.704Z,100478
2017-06-15T15:46:48.914Z,100475
2017-06-15T15:49:17.096Z,100461
2017-06-15T15:51:45.730Z,100458
2017-06-15T15:54:13.915Z,100451
2017-06-15T15:56:42.145Z,100446
2017-06-15T15:59:12.670Z,100445
2017-06-15T16:01:41.061Z,100435
2017-06-15T16:04:09.271Z,100427
2017-06-15T16:06:38.679Z,100425
2017-06-15T16:09:06.863Z,100425
2017-06-15T16:11:35.055Z,100433
2017-06-15T16:14:03.798Z,100434
2017-06-15T16:16:32.771Z,100429
2017-06-15T16:19:01.007Z,100428
2017-06-15T16:21:29.529Z,100426
2017-06-15T16:23:57.768Z,100423
2017-06-15T16:26:25.957Z,100415
2017-06-15T16:28:54.490Z,100417
2017-06-15T16:31:23.506Z,100409
2017-06-15T16:33:51.721Z,100414
2017-06-15T16:36:21.035Z,100412
2017-06-15T16:38:50.013Z,100409
2017-06-15T16:41:18.253Z,100411
2017-06-15T16:43:46.892Z,100414
2017-06-15T16:46:15.101Z,100414
2017-06-15T16:48:43.286Z,100415
2017-06-15T16:51:11.981Z,100417
2017-06-15T16:53:40.163Z,100416
2017-06-15T16:56:08.574Z,100413
2017-06-15T16:58:39.713Z,100412
2017-06-15T17:01:08.660Z,100419
2017-06-15T17:03:36.936Z,100414
2017-06-15T17:06:08.415Z,100415
2017-06-15T17:08:37.175Z,100425
2017-06-15T17:11:05.412Z,100429
2017-06-15T17:13:34.039Z,100438
2017-06-15T17:16:02.235Z,100433
2017-06-15T17:18:30.446Z,100441
2017-06-15T17:20:59.072Z,100454
2017-06-15T17:23:27.327Z,100449
2017-06-15T17:25:55.563Z,100451
2017-06-15T17:28:24.950Z,100448
2017-06-15T17:30:53.931Z,100449
2017-06-15T17:33:22.107Z,100444
2017-06-15T17:35:50.691Z,100432
2017-06-15T17:38:19.139Z,100422
2017-06-15T17:40:47.284Z,100414
2017-06-15T17:43:15.902Z,100415
2017-06-15T17:45:44.113Z,100419
2017-06-15T17:48:13.079Z,100420
2017-06-15T17:50:44.537Z,100417
2017-06-15T17:53:12.694Z,100399
2017-06-15T17:55:41.127Z,100400
2017-06-15T17:58:09.765Z,100405
2017-06-15T18:00:38.064Z,100404
2017-06-15T18:03:06.267Z,100389
2017-06-15T18:05:35.065Z,100397
2017-06-15T18:08:03.270Z,100393
2017-06-15T18:10:31.485Z,100397
2017-06-15T18:13:00.871Z,100391
2017-06-15T18:15:29.909Z,100386
2017-06-15T18:17:58.125Z,100384
2017-06-15T18:20:26.904Z,100383
2017-06-15T18:22:55.117Z,100373
2017-06-15T18:25:24.043Z,100373
2017-06-15T18:27:52.645Z,100356
2017-06-15T18:30:20.879Z,100363
2017-06-15T18:32:49.207Z,100362
2017-06-15T18:35:17.771Z,100357
2017-06-15T18:37:45.976Z,100348
2017-06-15T18:40:14.178Z,100346
2017-06-15T18:42:42.863Z,100339
2017-06-15T18:45:11.125Z,100330
2017-06-15T18:47:39.386Z,100323
2017-06-15T18:50:08.057Z,100334
2017-06-15T18:52:36.268Z,100321
2017-06-15T18:55:04.555Z,100320
2017-06-15T18:57:33.236Z,100338
2017-06-15T19:00:02.288Z,100357
2017-06-15T19:02:30.472Z,100368
2017-06-15T19:04:59.064Z,100368
2017-06-15T19:07:28.037Z,100363
2017-06-15T19:09:56.212Z,100353
2017-06-15T19:12:24.784Z,100362
2017-06-15T19:14:52.970Z,100365
2017-06-15T19:17:21.197Z,100353
2017-06-15T19:19:49.853Z,100333
2017-06-15T19:22:18.877Z,100319
2017-06-15T19:24:47.070Z,100346
2017-06-15T19:27:15.614Z,100345
2017-06-15T19:29:43.843Z,100341
2017-06-15T19:32:12.051Z,100337
2017-06-15T19:34:41.346Z,100332
2017-06-15T19:37:09.606Z,100330
2017-06-15T19:39:38.594Z,100325
2017-06-15T19:42:07.393Z,100338
2017-06-15T19:44:36.428Z,100346
2017-06-15T19:47:04.633Z,100351
2017-06-15T19:49:33.222Z,100358
2017-06-15T19:52:01.543Z,100366
2017-06-15T19:54:29.751Z,100373
2017-06-15T19:56:58.311Z,100371
2017-06-15T19:59:26.544Z,100382
2017-06-15T20:01:54.748Z,100376
2017-06-15T20:04:23.307Z,100381
2017-06-15T20:06:52.290Z,100391
2017-06-15T20:09:21.311Z,100389
2017-06-15T20:11:49.949Z,100418
2017-06-15T20:14:18.176Z,100462
2017-06-15T20:16:46.402Z,100471
2017-06-15T20:19:15.000Z,100474
2017-06-15T20:21:46.389Z,100476
2017-06-15T20:24:14.920Z,100478
2017-06-15T20:26:43.126Z,100487
2017-06-15T20:29:11.345Z,100495
2017-06-15T20:31:39.865Z,100493
2017-06-15T20:34:08.828Z,100496
2017-06-15T20:36:37.030Z,100512
2017-06-15T20:39:06.421Z,100508
2017-06-15T20:41:34.728Z,100504
2017-06-15T20:44:02.903Z,100533
2017-06-15T20:46:31.521Z,100522
2017-06-15T20:48:59.694Z,100507
2017-06-15T20:51:27.930Z,100484
2017-06-15T20:53:56.540Z,100479
2017-06-15T20:56:24.727Z,100472
2017-06-15T20:58:52.969Z,100464
2017-06-15T21:01:21.523Z,100472
2017-06-15T21:03:49.769Z,100471
2017-06-15T21:06:17.970Z,100469
2017-06-15T21:08:47.337Z,100466
2017-06-15T21:11:15.834Z,100468
2017-06-15T21:13:44.026Z,100467
2017-06-15T21:16:12.578Z,100457
2017-06-15T21:18:40.758Z,100450
2017-06-15T21:21:08.931Z,100446
2017-06-15T21:23:37.506Z,100452
2017-06-15T21:26:05.686Z,100447
2017-06-15T21:28:33.862Z,100441
2017-06-15T21:31:02.423Z,100444
2017-06-15T21:33:30.614Z,100446
2017-06-15T21:35:58.809Z,100447
2017-06-15T21:38:28.204Z,100451
2017-06-15T21:40:56.398Z,100445
2017-06-15T21:43:25.374Z,100460
2017-06-15T21:45:53.981Z,100453
2017-06-15T21:48:23.075Z,100451
2017-06-15T21:50:51.271Z,100454
2017-06-15T21:53:19.784Z,100453
2017-06-15T21:55:48.062Z,100444
2017-06-15T21:58:16.275Z,100447
2017-06-15T22:00:44.835Z,100444
2017-06-15T22:03:13.802Z,100454
2017-06-15T22:05:41.993Z,100449
2017-06-15T22:08:10.514Z,100452
2017-06-15T22:10:38.699Z,100445
2017-06-15T22:13:06.939Z,100454
2017-06-15T22:15:35.513Z,100457
2017-06-15T22:18:04.460Z,100460
2017-06-15T22:20:32.643Z,100462
2017-06-15T22:23:01.173Z,100463
2017-06-15T22:25:29.382Z,100464
2017-06-15T22:27:57.631Z,100462
2017-06-15T22:30:26.271Z,100457
2017-06-15T22:32:54.458Z,100462
2017-06-15T22:35:22.647Z,100463
2017-06-15T22:37:51.797Z,100468
2017-06-15T22:40:20.007Z,100472
2017-06-15T22:42:48.986Z,100473
2017-06-15T22:45:18.132Z,100466
2017-06-15T22:47:46.330Z,100473
2017-06-15T22:50:14.524Z,100477
2017-06-15T22:52:42.888Z,100476
2017-06-15T22:55:11.083Z,100472
2017-06-15T22:57:40.110Z,100483
2017-06-15T23:00:08.642Z,100475
2017-06-15T23:02:54.701Z,100476
2017-06-15T23:05:23.066Z,100490
2017-06-15T23:07:51.249Z,100487
2017-06-15T23:10:19.423Z,100489
2017-06-15T23:12:47.831Z,100494
2017-06-15T23:15:16.021Z,100481
2017-06-15T23:17:44.202Z,100478
2017-06-15T23:20:12.669Z,100485
2017-06-15T23:22:40.879Z,100488
2017-06-15T23:25:09.082Z,100478
2017-06-15T23:27:37.686Z,100454
2017-06-15T23:30:05.912Z,100477
2017-06-15T23:32:34.118Z,100474
2017-06-15T23:35:02.518Z,100475
2017-06-15T23:37:30.700Z,100467
2017-06-15T23:39:58.883Z,100463
2017-06-15T23:42:27.333Z,100469
2017-06-15T23:44:55.551Z,100469
2017-06-15T23:47:24.540Z,100469
2017-06-15T23:49:52.980Z,100459
2017-06-15T23:52:21.195Z,100458
2017-06-15T23:54:50.158Z,100463
2017-06-15T23:57:19.167Z,100467
2017-06-15T23:59:47.355Z,100467
